sensor_id;sensor_type;location;lat;lon;timestamp;temperature;humidity
23813;DHT22;12087;45.190;5.688;2023-09-19T00:02:13;17.90;99.90
23813;DHT22;12087;45.190;5.688;2023-09-19T00:07:36;17.80;99.90
23813;DHT22;12087;45.190;5.688;2023-09-19T00:12:58;17.80;99.90
23813;DHT22;12087;45.190;5.688;2023-09-19T00:18:26;17.80;99.90
23813;DHT22;12087;45.190;5.688;2023-09-19T00:23:53;17.70;99.90
23813;DHT22;12087;45.190;5.688;2023-09-19T00:29:16;17.80;99.90
23813;DHT22;12087;45.190;5.688;2023-09-19T00:34:39;17.80;99.90
23813;DHT22;12087;45.190;5.688;2023-09-19T00:40:03;17.80;99.90
23813;DHT22;12087;45.190;5.688;2023-09-19T00:45:26;17.80;99.90
23813;DHT22;12087;45.190;5.688;2023-09-19T00:50:50;17.80;99.90
23813;DHT22;12087;45.190;5.688;2023-09-19T00:56:15;17.80;99.90
23813;DHT22;12087;45.190;5.688;2023-09-19T01:01:39;17.90;99.90
23813;DHT22;12087;45.190;5.688;2023-09-19T01:07:03;17.90;99.90
23813;DHT22;12087;45.190;5.688;2023-09-19T01:12:35;17.90;99.90
23813;DHT22;12087;45.190;5.688;2023-09-19T01:18:11;17.90;99.90
23813;DHT22;12087;45.190;5.688;2023-09-19T01:24:06;17.90;99.90
23813;DHT22;12087;45.190;5.688;2023-09-19T01:29:37;18.00;99.90
23813;DHT22;12087;45.190;5.688;2023-09-19T01:35:02;18.00;99.90
23813;DHT22;12087;45.190;5.688;2023-09-19T01:40:25;18.00;99.90
23813;DHT22;12087;45.190;5.688;2023-09-19T01:45:55;18.00;99.90
23813;DHT22;12087;45.190;5.688;2023-09-19T01:51:31;18.00;99.90
23813;DHT22;12087;45.190;5.688;2023-09-19T01:57:01;18.00;99.90
23813;DHT22;12087;45.190;5.688;2023-09-19T02:02:30;17.90;99.90
23813;DHT22;12087;45.190;5.688;2023-09-19T02:07:53;18.00;99.90
23813;DHT22;12087;45.190;5.688;2023-09-19T02:13:16;18.00;99.90
23813;DHT22;12087;45.190;5.688;2023-09-19T02:18:39;17.90;99.90
23813;DHT22;12087;45.190;5.688;2023-09-19T02:24:04;17.90;99.90
23813;DHT22;12087;45.190;5.688;2023-09-19T02:29:28;18.00;99.90
23813;DHT22;12087;45.190;5.688;2023-09-19T02:34:50;18.00;99.90
23813;DHT22;12087;45.190;5.688;2023-09-19T02:40:15;18.00;99.90
23813;DHT22;12087;45.190;5.688;2023-09-19T02:45:40;18.00;99.90
23813;DHT22;12087;45.190;5.688;2023-09-19T02:51:02;18.00;99.90
23813;DHT22;12087;45.190;5.688;2023-09-19T02:56:27;18.00;99.90
23813;DHT22;12087;45.190;5.688;2023-09-19T03:01:50;18.00;99.90
23813;DHT22;12087;45.190;5.688;2023-09-19T03:07:12;18.00;99.90
23813;DHT22;12087;45.190;5.688;2023-09-19T03:12:36;17.90;99.90
23813;DHT22;12087;45.190;5.688;2023-09-19T03:17:58;17.90;99.90
23813;DHT22;12087;45.190;5.688;2023-09-19T03:23:21;17.80;99.90
23813;DHT22;12087;45.190;5.688;2023-09-19T03:28:45;17.80;99.90
23813;DHT22;12087;45.190;5.688;2023-09-19T03:34:08;17.70;99.90
23813;DHT22;12087;45.190;5.688;2023-09-19T03:39:30;17.70;99.90
23813;DHT22;12087;45.190;5.688;2023-09-19T03:44:54;17.70;99.90
23813;DHT22;12087;45.190;5.688;2023-09-19T03:50:18;17.60;99.90
23813;DHT22;12087;45.190;5.688;2023-09-19T03:55:40;17.60;99.90
23813;DHT22;12087;45.190;5.688;2023-09-19T04:01:04;17.60;99.90
23813;DHT22;12087;45.190;5.688;2023-09-19T04:06:27;17.50;99.90
23813;DHT22;12087;45.190;5.688;2023-09-19T04:11:49;17.50;99.90
23813;DHT22;12087;45.190;5.688;2023-09-19T04:17:14;17.60;99.90
23813;DHT22;12087;45.190;5.688;2023-09-19T04:22:36;17.60;99.90
23813;DHT22;12087;45.190;5.688;2023-09-19T04:27:58;17.60;99.90
23813;DHT22;12087;45.190;5.688;2023-09-19T04:33:22;17.70;99.90
23813;DHT22;12087;45.190;5.688;2023-09-19T04:38:44;17.60;99.90
23813;DHT22;12087;45.190;5.688;2023-09-19T04:44:07;17.60;99.90
23813;DHT22;12087;45.190;5.688;2023-09-19T04:49:30;17.70;99.90
23813;DHT22;12087;45.190;5.688;2023-09-19T04:54:53;17.70;99.90
23813;DHT22;12087;45.190;5.688;2023-09-19T05:00:16;17.70;99.90
23813;DHT22;12087;45.190;5.688;2023-09-19T05:05:41;17.70;99.90
23813;DHT22;12087;45.190;5.688;2023-09-19T05:11:03;17.60;99.90
23813;DHT22;12087;45.190;5.688;2023-09-19T05:16:28;17.70;99.90
23813;DHT22;12087;45.190;5.688;2023-09-19T05:21:53;17.60;99.90
23813;DHT22;12087;45.190;5.688;2023-09-19T05:27:15;17.70;99.90
23813;DHT22;12087;45.190;5.688;2023-09-19T05:32:38;17.70;99.90
23813;DHT22;12087;45.190;5.688;2023-09-19T05:38:02;17.70;99.90
23813;DHT22;12087;45.190;5.688;2023-09-19T05:43:26;17.70;99.90
23813;DHT22;12087;45.190;5.688;2023-09-19T05:48:48;17.70;99.90
23813;DHT22;12087;45.190;5.688;2023-09-19T05:54:12;17.60;99.90
23813;DHT22;12087;45.190;5.688;2023-09-19T05:59:34;17.60;99.90
23813;DHT22;12087;45.190;5.688;2023-09-19T06:04:56;17.70;99.90
23813;DHT22;12087;45.190;5.688;2023-09-19T06:10:20;17.70;99.90
23813;DHT22;12087;45.190;5.688;2023-09-19T06:15:44;17.60;99.90
23813;DHT22;12087;45.190;5.688;2023-09-19T06:21:07;17.60;99.90
23813;DHT22;12087;45.190;5.688;2023-09-19T06:26:32;17.70;99.90
23813;DHT22;12087;45.190;5.688;2023-09-19T06:31:54;17.70;99.90
23813;DHT22;12087;45.190;5.688;2023-09-19T06:37:16;17.70;99.90
23813;DHT22;12087;45.190;5.688;2023-09-19T06:42:41;17.70;99.90
23813;DHT22;12087;45.190;5.688;2023-09-19T06:48:04;17.70;99.90
23813;DHT22;12087;45.190;5.688;2023-09-19T06:53:26;17.60;99.90
23813;DHT22;12087;45.190;5.688;2023-09-19T06:58:50;17.70;99.90
23813;DHT22;12087;45.190;5.688;2023-09-19T07:04:13;17.60;99.90
23813;DHT22;12087;45.190;5.688;2023-09-19T07:09:35;17.70;99.90
23813;DHT22;12087;45.190;5.688;2023-09-19T07:14:59;17.70;99.90
23813;DHT22;12087;45.190;5.688;2023-09-19T07:20:21;17.70;99.90
23813;DHT22;12087;45.190;5.688;2023-09-19T07:25:46;17.70;99.90
23813;DHT22;12087;45.190;5.688;2023-09-19T07:31:10;17.70;99.90
23813;DHT22;12087;45.190;5.688;2023-09-19T07:36:35;17.80;99.90
23813;DHT22;12087;45.190;5.688;2023-09-19T07:41:58;17.90;99.90
23813;DHT22;12087;45.190;5.688;2023-09-19T07:47:22;17.90;99.90
23813;DHT22;12087;45.190;5.688;2023-09-19T07:52:44;17.90;99.90
23813;DHT22;12087;45.190;5.688;2023-09-19T07:58:06;17.90;99.90
23813;DHT22;12087;45.190;5.688;2023-09-19T08:03:30;18.00;99.90
23813;DHT22;12087;45.190;5.688;2023-09-19T08:08:52;18.10;99.90
23813;DHT22;12087;45.190;5.688;2023-09-19T08:14:15;18.10;99.90
23813;DHT22;12087;45.190;5.688;2023-09-19T08:19:39;18.20;99.90
23813;DHT22;12087;45.190;5.688;2023-09-19T08:25:03;18.20;99.90
23813;DHT22;12087;45.190;5.688;2023-09-19T08:30:27;18.30;99.90
23813;DHT22;12087;45.190;5.688;2023-09-19T08:35:52;18.60;99.90
23813;DHT22;12087;45.190;5.688;2023-09-19T08:41:17;18.80;99.90
23813;DHT22;12087;45.190;5.688;2023-09-19T08:46:42;19.00;99.90
23813;DHT22;12087;45.190;5.688;2023-09-19T08:52:13;19.10;99.90
23813;DHT22;12087;45.190;5.688;2023-09-19T08:57:38;19.20;99.90
23813;DHT22;12087;45.190;5.688;2023-09-19T09:03:03;19.20;99.90
23813;DHT22;12087;45.190;5.688;2023-09-19T09:08:31;19.30;99.90
23813;DHT22;12087;45.190;5.688;2023-09-19T09:13:53;19.40;99.90
23813;DHT22;12087;45.190;5.688;2023-09-19T09:19:15;19.50;99.90
23813;DHT22;12087;45.190;5.688;2023-09-19T09:24:56;19.40;99.90
23813;DHT22;12087;45.190;5.688;2023-09-19T09:30:33;19.60;99.90
23813;DHT22;12087;45.190;5.688;2023-09-19T09:35:57;19.80;99.90
23813;DHT22;12087;45.190;5.688;2023-09-19T09:41:36;20.00;99.90
23813;DHT22;12087;45.190;5.688;2023-09-19T09:47:00;20.00;99.90
23813;DHT22;12087;45.190;5.688;2023-09-19T09:52:45;20.10;99.90
23813;DHT22;12087;45.190;5.688;2023-09-19T09:58:18;20.20;99.90
23813;DHT22;12087;45.190;5.688;2023-09-19T10:03:44;20.10;99.90
23813;DHT22;12087;45.190;5.688;2023-09-19T10:09:09;20.30;99.90
23813;DHT22;12087;45.190;5.688;2023-09-19T10:14:41;20.50;99.90
23813;DHT22;12087;45.190;5.688;2023-09-19T10:20:04;20.60;99.90
23813;DHT22;12087;45.190;5.688;2023-09-19T10:25:43;20.60;99.90
23813;DHT22;12087;45.190;5.688;2023-09-19T10:31:09;20.80;99.90
23813;DHT22;12087;45.190;5.688;2023-09-19T10:36:35;20.90;99.90
23813;DHT22;12087;45.190;5.688;2023-09-19T10:42:02;21.10;99.90
23813;DHT22;12087;45.190;5.688;2023-09-19T10:47:27;21.00;99.90
23813;DHT22;12087;45.190;5.688;2023-09-19T10:52:51;21.20;99.90
23813;DHT22;12087;45.190;5.688;2023-09-19T10:58:26;21.40;99.90
23813;DHT22;12087;45.190;5.688;2023-09-19T11:04:23;21.70;99.90
23813;DHT22;12087;45.190;5.688;2023-09-19T11:09:48;21.90;99.90
23813;DHT22;12087;45.190;5.688;2023-09-19T11:21:42;22.20;99.90
23813;DHT22;12087;45.190;5.688;2023-09-19T11:27:15;22.30;99.90
23813;DHT22;12087;45.190;5.688;2023-09-19T11:39:01;22.40;99.90
23813;DHT22;12087;45.190;5.688;2023-09-19T11:44:34;22.10;99.90
23813;DHT22;12087;45.190;5.688;2023-09-19T11:50:01;22.10;99.90
23813;DHT22;12087;45.190;5.688;2023-09-19T11:55:28;22.30;99.90
23813;DHT22;12087;45.190;5.688;2023-09-19T12:00:54;22.50;99.90
23813;DHT22;12087;45.190;5.688;2023-09-19T12:06:18;22.70;99.90
23813;DHT22;12087;45.190;5.688;2023-09-19T12:11:44;23.00;99.90
23813;DHT22;12087;45.190;5.688;2023-09-19T12:17:06;23.20;99.90
23813;DHT22;12087;45.190;5.688;2023-09-19T12:22:39;23.30;99.90
23813;DHT22;12087;45.190;5.688;2023-09-19T12:28:03;23.30;99.90
23813;DHT22;12087;45.190;5.688;2023-09-19T12:33:27;23.40;99.90
23813;DHT22;12087;45.190;5.688;2023-09-19T12:38:49;23.60;99.90
23813;DHT22;12087;45.190;5.688;2023-09-19T12:44:12;23.90;99.90
23813;DHT22;12087;45.190;5.688;2023-09-19T12:49:35;23.90;99.90
23813;DHT22;12087;45.190;5.688;2023-09-19T12:54:57;24.30;99.90
23813;DHT22;12087;45.190;5.688;2023-09-19T13:00:32;24.50;99.90
23813;DHT22;12087;45.190;5.688;2023-09-19T13:05:57;24.40;99.90
23813;DHT22;12087;45.190;5.688;2023-09-19T13:11:21;24.40;99.90
23813;DHT22;12087;45.190;5.688;2023-09-19T13:16:58;24.70;99.90
23813;DHT22;12087;45.190;5.688;2023-09-19T13:22:36;24.90;99.90
23813;DHT22;12087;45.190;5.688;2023-09-19T13:28:00;25.10;99.90
23813;DHT22;12087;45.190;5.688;2023-09-19T13:33:26;25.20;99.90
23813;DHT22;12087;45.190;5.688;2023-09-19T13:38:48;25.50;99.90
23813;DHT22;12087;45.190;5.688;2023-09-19T13:44:11;25.60;99.90
23813;DHT22;12087;45.190;5.688;2023-09-19T13:49:34;25.60;99.90
23813;DHT22;12087;45.190;5.688;2023-09-19T13:54:58;25.80;99.90
23813;DHT22;12087;45.190;5.688;2023-09-19T14:00:20;25.80;99.90
23813;DHT22;12087;45.190;5.688;2023-09-19T14:05:44;26.00;99.90
23813;DHT22;12087;45.190;5.688;2023-09-19T14:11:07;25.90;99.90
23813;DHT22;12087;45.190;5.688;2023-09-19T14:16:29;26.10;99.90
23813;DHT22;12087;45.190;5.688;2023-09-19T14:21:53;26.10;99.90
23813;DHT22;12087;45.190;5.688;2023-09-19T14:27:16;26.00;99.90
23813;DHT22;12087;45.190;5.688;2023-09-19T14:32:38;25.80;99.90
23813;DHT22;12087;45.190;5.688;2023-09-19T14:38:02;25.60;99.90
23813;DHT22;12087;45.190;5.688;2023-09-19T14:43:25;25.60;99.90
23813;DHT22;12087;45.190;5.688;2023-09-19T14:48:47;25.50;99.90
23813;DHT22;12087;45.190;5.688;2023-09-19T14:54:11;25.30;99.90
23813;DHT22;12087;45.190;5.688;2023-09-19T14:59:34;25.10;99.90
23813;DHT22;12087;45.190;5.688;2023-09-19T15:04:57;25.00;99.90
23813;DHT22;12087;45.190;5.688;2023-09-19T15:10:21;25.00;99.90
23813;DHT22;12087;45.190;5.688;2023-09-19T15:15:43;24.80;99.90
23813;DHT22;12087;45.190;5.688;2023-09-19T15:21:09;24.70;99.90
23813;DHT22;12087;45.190;5.688;2023-09-19T15:26:33;24.60;99.90
23813;DHT22;12087;45.190;5.688;2023-09-19T15:31:56;24.50;99.90
23813;DHT22;12087;45.190;5.688;2023-09-19T15:37:22;24.40;99.90
23813;DHT22;12087;45.190;5.688;2023-09-19T15:42:48;24.20;99.90
23813;DHT22;12087;45.190;5.688;2023-09-19T15:48:10;24.20;99.90
23813;DHT22;12087;45.190;5.688;2023-09-19T15:53:42;24.10;99.90
23813;DHT22;12087;45.190;5.688;2023-09-19T15:59:06;24.00;99.90
23813;DHT22;12087;45.190;5.688;2023-09-19T16:04:29;23.80;99.90
23813;DHT22;12087;45.190;5.688;2023-09-19T16:09:51;23.70;99.90
23813;DHT22;12087;45.190;5.688;2023-09-19T16:15:15;23.60;99.90
23813;DHT22;12087;45.190;5.688;2023-09-19T16:20:39;23.60;99.90
23813;DHT22;12087;45.190;5.688;2023-09-19T16:26:02;23.40;99.90
23813;DHT22;12087;45.190;5.688;2023-09-19T16:31:28;23.40;99.90
23813;DHT22;12087;45.190;5.688;2023-09-19T16:36:51;23.20;99.90
23813;DHT22;12087;45.190;5.688;2023-09-19T16:42:14;23.20;99.90
23813;DHT22;12087;45.190;5.688;2023-09-19T16:47:38;23.10;99.90
23813;DHT22;12087;45.190;5.688;2023-09-19T16:53:00;23.00;99.90
23813;DHT22;12087;45.190;5.688;2023-09-19T16:58:22;22.90;99.90
23813;DHT22;12087;45.190;5.688;2023-09-19T17:03:46;22.80;99.90
23813;DHT22;12087;45.190;5.688;2023-09-19T17:09:08;22.70;99.90
23813;DHT22;12087;45.190;5.688;2023-09-19T17:14:33;22.50;99.90
23813;DHT22;12087;45.190;5.688;2023-09-19T17:19:57;22.50;99.90
23813;DHT22;12087;45.190;5.688;2023-09-19T17:25:19;22.30;99.90
23813;DHT22;12087;45.190;5.688;2023-09-19T17:30:42;22.20;99.90
23813;DHT22;12087;45.190;5.688;2023-09-19T17:36:07;22.10;99.90
23813;DHT22;12087;45.190;5.688;2023-09-19T17:41:30;22.00;99.90
23813;DHT22;12087;45.190;5.688;2023-09-19T17:46:53;21.90;99.90
23813;DHT22;12087;45.190;5.688;2023-09-19T17:52:16;21.80;99.90
23813;DHT22;12087;45.190;5.688;2023-09-19T17:57:39;21.70;99.90
23813;DHT22;12087;45.190;5.688;2023-09-19T18:03:02;21.70;99.90
23813;DHT22;12087;45.190;5.688;2023-09-19T18:08:26;21.50;99.90
23813;DHT22;12087;45.190;5.688;2023-09-19T18:13:49;21.40;99.90
23813;DHT22;12087;45.190;5.688;2023-09-19T18:19:13;21.30;99.90
23813;DHT22;12087;45.190;5.688;2023-09-19T18:24:38;21.30;99.90
23813;DHT22;12087;45.190;5.688;2023-09-19T18:30:00;21.20;99.90
23813;DHT22;12087;45.190;5.688;2023-09-19T18:35:23;21.10;99.90
23813;DHT22;12087;45.190;5.688;2023-09-19T18:40:49;21.10;99.90
23813;DHT22;12087;45.190;5.688;2023-09-19T18:46:11;21.00;99.90
23813;DHT22;12087;45.190;5.688;2023-09-19T18:51:34;20.90;99.90
23813;DHT22;12087;45.190;5.688;2023-09-19T18:56:57;20.80;99.90
23813;DHT22;12087;45.190;5.688;2023-09-19T19:02:20;20.80;99.90
23813;DHT22;12087;45.190;5.688;2023-09-19T19:07:43;20.80;99.90
23813;DHT22;12087;45.190;5.688;2023-09-19T19:13:07;20.70;99.90
23813;DHT22;12087;45.190;5.688;2023-09-19T19:18:29;20.70;99.90
23813;DHT22;12087;45.190;5.688;2023-09-19T19:23:51;20.50;99.90
23813;DHT22;12087;45.190;5.688;2023-09-19T19:29:15;20.40;99.90
23813;DHT22;12087;45.190;5.688;2023-09-19T19:34:38;20.30;99.90
23813;DHT22;12087;45.190;5.688;2023-09-19T19:40:00;20.20;99.90
23813;DHT22;12087;45.190;5.688;2023-09-19T19:45:24;20.20;99.90
23813;DHT22;12087;45.190;5.688;2023-09-19T19:50:46;20.10;99.90
23813;DHT22;12087;45.190;5.688;2023-09-19T19:56:08;20.00;99.90
23813;DHT22;12087;45.190;5.688;2023-09-19T20:01:32;19.90;99.90
23813;DHT22;12087;45.190;5.688;2023-09-19T20:06:54;19.80;99.90
23813;DHT22;12087;45.190;5.688;2023-09-19T20:12:17;19.80;99.90
23813;DHT22;12087;45.190;5.688;2023-09-19T20:17:40;19.70;99.90
23813;DHT22;12087;45.190;5.688;2023-09-19T20:23:03;19.60;99.90
23813;DHT22;12087;45.190;5.688;2023-09-19T20:28:27;19.60;99.90
23813;DHT22;12087;45.190;5.688;2023-09-19T20:33:51;19.60;99.90
23813;DHT22;12087;45.190;5.688;2023-09-19T20:39:15;19.50;99.90
23813;DHT22;12087;45.190;5.688;2023-09-19T20:44:37;19.40;99.90
23813;DHT22;12087;45.190;5.688;2023-09-19T20:50:02;19.30;99.90
23813;DHT22;12087;45.190;5.688;2023-09-19T20:55:25;19.20;99.90
23813;DHT22;12087;45.190;5.688;2023-09-19T21:00:48;19.20;99.90
23813;DHT22;12087;45.190;5.688;2023-09-19T21:06:12;19.10;99.90
23813;DHT22;12087;45.190;5.688;2023-09-19T21:11:35;19.00;99.90
23813;DHT22;12087;45.190;5.688;2023-09-19T21:16:57;19.10;99.90
23813;DHT22;12087;45.190;5.688;2023-09-19T21:22:21;19.00;99.90
23813;DHT22;12087;45.190;5.688;2023-09-19T21:27:45;19.10;99.90
23813;DHT22;12087;45.190;5.688;2023-09-19T21:33:07;19.00;99.90
23813;DHT22;12087;45.190;5.688;2023-09-19T21:38:31;18.90;99.90
23813;DHT22;12087;45.190;5.688;2023-09-19T21:43:54;18.80;99.90
23813;DHT22;12087;45.190;5.688;2023-09-19T21:49:16;18.80;99.90
23813;DHT22;12087;45.190;5.688;2023-09-19T21:54:39;18.80;99.90
23813;DHT22;12087;45.190;5.688;2023-09-19T22:00:03;18.80;99.90
23813;DHT22;12087;45.190;5.688;2023-09-19T22:05:25;18.90;99.90
23813;DHT22;12087;45.190;5.688;2023-09-19T22:10:49;18.90;99.90
23813;DHT22;12087;45.190;5.688;2023-09-19T22:16:13;18.90;99.90
23813;DHT22;12087;45.190;5.688;2023-09-19T22:21:35;18.90;99.90
23813;DHT22;12087;45.190;5.688;2023-09-19T22:27:02;18.90;99.90
23813;DHT22;12087;45.190;5.688;2023-09-19T22:32:25;18.90;99.90
23813;DHT22;12087;45.190;5.688;2023-09-19T22:37:48;18.80;99.90
23813;DHT22;12087;45.190;5.688;2023-09-19T22:43:12;18.80;99.90
23813;DHT22;12087;45.190;5.688;2023-09-19T22:48:35;18.80;99.90
23813;DHT22;12087;45.190;5.688;2023-09-19T22:53:57;18.70;99.90
23813;DHT22;12087;45.190;5.688;2023-09-19T23:11:56;18.70;99.90
23813;DHT22;12087;45.190;5.688;2023-09-19T23:17:22;18.60;99.90
23813;DHT22;12087;45.190;5.688;2023-09-19T23:22:44;18.60;99.90
23813;DHT22;12087;45.190;5.688;2023-09-19T23:28:14;18.60;99.90
23813;DHT22;12087;45.190;5.688;2023-09-19T23:33:36;18.60;99.90
23813;DHT22;12087;45.190;5.688;2023-09-19T23:38:58;18.60;99.90
23813;DHT22;12087;45.190;5.688;2023-09-19T23:44:22;18.50;99.90
23813;DHT22;12087;45.190;5.688;2023-09-19T23:49:44;18.50;99.90
23813;DHT22;12087;45.190;5.688;2023-09-19T23:55:09;18.40;99.90
